This is the latest recevied weather packets stored in our database for station/object DB8NZ-11. If no packets are shown the sender has not sent any weather packets the latest 1 day(s).
| Time | Temp. | Humidity | Pressure | Rain* | Wind** | Luminosity | Snow |
|---|---|---|---|---|---|---|---|
| 1777748223 | 18.33° C | 46% | 1021.3 hPa | - | - | - | - |
| 1777747323 | 19.44° C | 45% | 1021.2 hPa | - | - | - | - |
| 1777746423 | 21.11° C | 42% | 1021.1 hPa | - | - | - | - |
| 1777745523 | 22.78° C | 39% | 1021 hPa | - | - | - | - |
| 1777744622 | 23.89° C | 34% | 1021 hPa | - | - | - | - |
| 1777743722 | 25.56° C | 30% | 1021 hPa | - | - | - | - |
| 1777742822 | 26.67° C | 26% | 1020.9 hPa | - | - | - | - |
| 1777741922 | 27.78° C | 20% | 1021 hPa | - | - | - | - |
| 1777741022 | 28.33° C | 18% | 1021.2 hPa | - | - | - | - |
| 1777740122 | 28.33° C | 17% | 1021.4 hPa | - | - | - | - |
| 1777739222 | 28.33° C | 17% | 1021.5 hPa | - | - | - | - |
| 1777738322 | 28.89° C | 18% | 1021.8 hPa | - | - | - | - |
| 1777737422 | 29.44° C | 17% | 1022 hPa | - | - | - | - |
| 1777736522 | 28.89° C | 18% | 1022.1 hPa | - | - | - | - |
| 1777735622 | 29.44° C | 18% | 1022.2 hPa | - | - | - | - |
| 1777734722 | 29.44° C | 18% | 1022.4 hPa | - | - | - | - |
| 1777733822 | 29.44° C | 19% | 1022.6 hPa | - | - | - | - |
| 1777732921 | 29.44° C | 20% | 1022.9 hPa | - | - | - | - |
| 1777732021 | 29.44° C | 20% | 1022.9 hPa | - | - | - | - |
| 1777731513 | 29.44° C | 20% | 1023 hPa | - | - | - | - |
| 1777730613 | 30° C | 18% | 1023.2 hPa | - | - | - | - |
| 1777729713 | 30° C | 19% | 1023.3 hPa | - | - | - | - |
| 1777728813 | 31.11° C | 18% | 1023.5 hPa | - | - | - | - |
| 1777727913 | 30.56° C | 17% | 1023.8 hPa | - | - | - | - |
| 1777727013 | 31.11° C | 17% | 1024 hPa | - | - | - | - |
* Rain since midnight (hover to see other rain measurements)
** Current wind speed in m/s (hover to see current wind gust speed)